Time;durP1;ratioP1;P1;durP2;ratioP2;P2;SDS_P1;SDS_P2;PMS_P1;PMS_P2;Temp;Humidity;BMP_temperature;BMP_pressure;BME280_temperature;BME280_humidity;BME280_pressure;Samples;Min_cycle;Max_cycle;Signal;HPM_P1;HPM_P2
2022/06/30 00:00:06;;;;;;;;;;;;;;;18.18;81.02;95240.69;5136560;27;1020;-48
2022/06/30 00:02:32;;;;;;;;;;;;;;;18.12;81.05;95236.94;5136762;27;973;-48
2022/06/30 00:04:58;;;;;;;;;;;;;;;18.23;81.00;95230.91;5136109;27;1937;-47
2022/06/30 00:07:24;;;;;;;;;;;;;;;18.27;80.90;95231.31;5136721;27;1035;-47
2022/06/30 00:09:50;;;;;;;;;;;;;;;18.24;81.14;95231.72;5136263;27;1147;-48
2022/06/30 00:12:16;;;;;;;;;;;;;;;18.03;81.40;95225.47;5136577;27;1027;-47
2022/06/30 00:14:42;;;;;;;;;;;;;;;17.72;81.86;95224.13;5118135;27;1028;-48
2022/06/30 00:17:08;;;;;;;;;;;;;;;17.61;81.88;95227.41;5136353;27;975;-47
2022/06/30 00:19:34;;;;;;;;;;;;;;;17.55;82.50;95226.34;5135818;27;1083;-47
2022/06/30 00:22:00;;;;;;;;;;;;;;;17.84;81.40;95231.63;5136538;27;1107;-47
2022/06/30 00:24:27;;;;;;;;;;;;;;;18.06;80.53;95230.47;5135973;27;1986;-47
2022/06/30 00:26:53;;;;;;;;;;;;;;;18.06;80.64;95225.06;5136312;27;960;-47
2022/06/30 00:29:19;;;;;;;;;;;;;;;17.99;80.86;95232.31;5135897;27;1016;-47
2022/06/30 00:31:44;;;;;;;;;;;;;;;17.97;81.13;95231.69;5136139;27;989;-47
2022/06/30 00:34:10;;;;;;;;;;;;;;;17.90;81.37;95228.97;5135545;27;1065;-47
2022/06/30 00:36:36;;;;;;;;;;;;;;;17.85;81.59;95228.75;5136253;27;965;-47
2022/06/30 00:39:02;;;;;;;;;;;;;;;17.55;80.95;95230.94;5135666;27;2033;-47
2022/06/30 00:41:28;;;;;;;;;;;;;;;17.50;81.62;95228.00;5136071;27;999;-47
2022/06/30 00:43:54;;;;;;;;;;;;;;;17.61;81.66;95227.41;5154487;27;1910;-47
2022/06/30 00:46:20;;;;;;;;;;;;;;;17.56;81.14;95233.41;5156473;27;975;-47
2022/06/30 00:48:47;;;;;;;;;;;;;;;17.37;81.50;95232.28;5156185;27;1858;-47
2022/06/30 00:51:12;;;;;;;;;;;;;;;17.24;82.37;95229.53;5156315;27;1023;-48
2022/06/30 00:53:39;;;;;;;;;;;;;;;17.40;81.73;95219.44;5156561;27;972;-47
2022/06/30 00:56:06;;;;;;;;;;;;;;;17.29;81.55;95242.47;5156306;27;1019;-47
2022/06/30 00:58:35;;;;;;;;;;;;;;;17.16;82.45;95240.50;5156258;27;1099;-47
2022/06/30 01:01:01;;;;;;;;;;;;;;;16.98;83.25;95238.34;5156403;27;1024;-47
2022/06/30 01:03:27;;;;;;;;;;;;;;;17.05;82.91;95232.97;5155213;27;1909;-47
2022/06/30 01:05:53;;;;;;;;;;;;;;;17.23;81.84;95240.56;5155652;27;1115;-47
2022/06/30 01:08:19;;;;;;;;;;;;;;;17.52;80.15;95231.31;5155810;27;1094;-47
2022/06/30 01:13:30;;;;;;;;;;;;;;;17.15;81.90;95238.88;5156046;27;1861;-47
2022/06/30 01:15:56;;;;;;;;;;;;;;;17.15;81.99;95234.28;5155687;27;995;-47
2022/06/30 01:18:22;;;;;;;;;;;;;;;17.26;81.98;95234.75;5156018;27;1007;-47
2022/06/30 01:20:48;;;;;;;;;;;;;;;17.31;81.69;95230.41;5155880;27;1040;-47
2022/06/30 01:23:14;;;;;;;;;;;;;;;17.37;82.25;95226.88;5155812;27;1910;-47
2022/06/30 01:25:40;;;;;;;;;;;;;;;17.32;82.05;95232.09;5155546;27;1032;-48
2022/06/30 01:28:06;;;;;;;;;;;;;;;17.05;81.72;95233.78;5155636;27;1016;-47
2022/06/30 01:30:32;;;;;;;;;;;;;;;16.76;82.50;95234.84;5155451;27;1098;-47
2022/06/30 01:32:58;;;;;;;;;;;;;;;16.77;83.11;95223.84;5155849;27;969;-48
2022/06/30 01:35:24;;;;;;;;;;;;;;;16.78;82.94;95232.78;5155334;27;965;-47
2022/06/30 01:37:50;;;;;;;;;;;;;;;16.69;83.30;95228.56;5155514;27;1028;-47
2022/06/30 01:40:17;;;;;;;;;;;;;;;16.68;83.52;95221.50;5155356;27;960;-47
2022/06/30 01:42:43;;;;;;;;;;;;;;;16.64;83.93;95231.88;5146757;27;1224;-47
2022/06/30 01:45:09;;;;;;;;;;;;;;;16.88;82.94;95235.16;5134378;27;1909;-47
2022/06/30 01:47:36;;;;;;;;;;;;;;;17.06;82.04;95230.06;5134685;27;1011;-47
2022/06/30 01:50:04;;;;;;;;;;;;;;;17.04;82.46;95229.44;5134606;27;1023;-48
2022/06/30 01:52:30;;;;;;;;;;;;;;;17.05;82.20;95225.69;5134796;27;972;-47
2022/06/30 01:54:55;;;;;;;;;;;;;;;17.02;82.66;95230.69;5134389;27;1082;-48
2022/06/30 01:57:21;;;;;;;;;;;;;;;16.81;82.61;95227.00;5134544;27;1040;-47
2022/06/30 01:59:47;;;;;;;;;;;;;;;16.61;83.36;95229.53;5134399;27;961;-47
2022/06/30 02:02:13;;;;;;;;;;;;;;;16.53;83.75;95230.53;5134289;27;1071;-47
2022/06/30 02:04:50;;;;;;;;;;;;;;;16.73;83.58;95219.88;5134412;27;1988;-47
2022/06/30 02:07:20;;;;;;;;;;;;;;;16.77;83.17;95220.31;5134346;27;1027;-47
2022/06/30 02:09:46;;;;;;;;;;;;;;;16.68;82.96;95225.03;5134218;27;1107;-47
2022/06/30 02:14:58;;;;;;;;;;;;;;;16.68;83.57;95216.09;5134111;27;1028;-47
2022/06/30 02:17:24;;;;;;;;;;;;;;;16.36;84.04;95229.97;5134275;28;983;-47
2022/06/30 02:19:50;;;;;;;;;;;;;;;16.35;84.51;95225.63;5134249;28;1098;-47
2022/06/30 02:22:16;;;;;;;;;;;;;;;16.55;84.06;95224.94;5134134;28;1040;-47
2022/06/30 02:24:42;;;;;;;;;;;;;;;16.68;83.79;95232.31;5134259;28;1996;-47
2022/06/30 02:27:08;;;;;;;;;;;;;;;16.76;83.52;95224.03;5133885;28;1028;-47
2022/06/30 02:29:34;;;;;;;;;;;;;;;16.75;83.82;95223.22;5134423;28;969;-47
2022/06/30 02:32:00;;;;;;;;;;;;;;;16.48;82.92;95229.44;5133908;28;1028;-47
2022/06/30 02:34:28;;;;;;;;;;;;;;;16.23;83.80;95229.03;5134125;28;972;-47
2022/06/30 02:36:57;;;;;;;;;;;;;;;16.22;84.12;95230.91;5134064;28;1173;-47
2022/06/30 02:39:23;;;;;;;;;;;;;;;16.34;83.55;95221.25;5134047;28;1103;-47
2022/06/30 02:41:49;;;;;;;;;;;;;;;16.45;83.19;95222.59;5134703;27;1212;-47
2022/06/30 02:44:15;;;;;;;;;;;;;;;16.50;83.15;95228.22;5154826;27;1917;-47
2022/06/30 02:46:41;;;;;;;;;;;;;;;16.67;81.98;95236.03;5154600;27;1827;-47
2022/06/30 02:49:07;;;;;;;;;;;;;;;16.51;82.73;95238.00;5154811;27;1074;-47
2022/06/30 02:51:33;;;;;;;;;;;;;;;16.42;82.71;95232.94;5154628;27;1095;-47
2022/06/30 02:53:59;;;;;;;;;;;;;;;16.37;82.47;95234.34;5154612;27;1086;-47
2022/06/30 02:56:25;;;;;;;;;;;;;;;16.49;82.48;95233.81;5154423;27;1219;-47
2022/06/30 02:58:51;;;;;;;;;;;;;;;16.43;82.64;95234.59;5154642;27;1980;-48
2022/06/30 03:01:17;;;;;;;;;;;;;;;16.34;82.42;95242.84;5154353;27;1194;-47
2022/06/30 03:03:43;;;;;;;;;;;;;;;16.13;83.90;95241.00;5154475;27;1998;-47
2022/06/30 03:06:09;;;;;;;;;;;;;;;15.98;84.05;95232.97;5154243;27;1016;-47
2022/06/30 03:08:35;;;;;;;;;;;;;;;16.00;84.13;95232.78;5154713;27;1079;-47
2022/06/30 03:11:01;;;;;;;;;;;;;;;16.32;82.96;95244.88;5154296;27;1120;-47
2022/06/30 03:13:27;;;;;;;;;;;;;;;16.38;82.61;95240.59;5154545;27;1102;-47
2022/06/30 03:15:53;;;;;;;;;;;;;;;16.49;83.00;95236.53;5154691;27;972;-47
2022/06/30 03:18:19;;;;;;;;;;;;;;;16.44;83.12;95234.41;5154238;27;1023;-47
2022/06/30 03:20:45;;;;;;;;;;;;;;;16.31;83.25;95236.97;5154433;27;1842;-47
2022/06/30 03:23:11;;;;;;;;;;;;;;;16.15;83.91;95232.72;5154100;27;1913;-47
2022/06/30 03:25:37;;;;;;;;;;;;;;;16.10;84.81;95235.16;5154325;27;1020;-47
2022/06/30 03:28:04;;;;;;;;;;;;;;;16.23;84.65;95239.84;5156392;27;1087;-47
2022/06/30 03:30:30;;;;;;;;;;;;;;;16.31;84.26;95247.78;5158209;27;1230;-47
2022/06/30 03:32:56;;;;;;;;;;;;;;;16.24;83.99;95246.88;5157910;27;964;-47
2022/06/30 03:35:22;;;;;;;;;;;;;;;16.30;84.92;95235.34;5157772;27;969;-47
2022/06/30 03:37:48;;;;;;;;;;;;;;;16.39;85.08;95239.56;5157705;27;1028;-47
2022/06/30 03:40:14;;;;;;;;;;;;;;;16.46;84.49;95251.22;5157728;27;1032;-47
2022/06/30 03:42:40;;;;;;;;;;;;;;;16.69;83.88;95248.28;5149371;27;1316;-47
2022/06/30 03:45:06;;;;;;;;;;;;;;;17.04;82.45;95247.53;5136912;27;2029;-48
2022/06/30 03:47:32;;;;;;;;;;;;;;;17.21;82.44;95248.88;5136827;27;1035;-47
2022/06/30 03:49:58;;;;;;;;;;;;;;;17.31;82.55;95241.22;5137058;27;945;-47
2022/06/30 03:52:24;;;;;;;;;;;;;;;17.22;82.51;95247.81;5136672;27;1015;-48
2022/06/30 03:54:50;;;;;;;;;;;;;;;17.15;83.72;95247.78;5136746;27;1106;-47
2022/06/30 03:57:16;;;;;;;;;;;;;;;17.20;84.14;95252.59;5136771;27;981;-47
2022/06/30 03:59:43;;;;;;;;;;;;;;;17.26;84.10;95245.53;5136948;27;944;-47
2022/06/30 04:02:09;;;;;;;;;;;;;;;17.46;84.08;95246.47;5136474;27;1060;-47
2022/06/30 04:04:35;;;;;;;;;;;;;;;17.65;83.42;95244.88;5136472;27;2015;-47
2022/06/30 04:07:01;;;;;;;;;;;;;;;17.83;82.95;95246.19;5136468;27;965;-47
2022/06/30 04:09:27;;;;;;;;;;;;;;;17.88;83.41;95249.97;5136266;27;1079;-47
2022/06/30 04:11:53;;;;;;;;;;;;;;;18.00;83.10;95252.91;5136578;27;974;-48
2022/06/30 04:14:19;;;;;;;;;;;;;;;18.18;82.50;95262.34;5136560;27;1048;-48
2022/06/30 04:16:45;;;;;;;;;;;;;;;18.18;81.84;95257.75;5136411;27;1040;-47
2022/06/30 04:19:11;;;;;;;;;;;;;;;18.34;82.54;95251.09;5136108;27;1854;-48
2022/06/30 04:21:37;;;;;;;;;;;;;;;18.58;78.10;95256.94;5136366;27;1028;-48
2022/06/30 04:24:03;;;;;;;;;;;;;;;18.76;77.60;95262.53;5135913;27;1910;-48
2022/06/30 04:26:29;;;;;;;;;;;;;;;18.97;76.77;95266.09;5136547;27;1031;-47
2022/06/30 04:28:55;;;;;;;;;;;;;;;19.17;75.54;95263.38;5135996;27;1016;-47
2022/06/30 04:34:06;;;;;;;;;;;;;;;19.45;74.75;95263.09;5135738;27;1027;-48
2022/06/30 04:36:32;;;;;;;;;;;;;;;19.42;72.98;95264.31;5135991;27;1028;-49
2022/06/30 04:38:58;;;;;;;;;;;;;;;19.39;73.81;95262.06;5135705;27;1047;-49
2022/06/30 04:41:24;;;;;;;;;;;;;;;19.48;72.67;95266.22;5136243;27;1011;-47
2022/06/30 04:43:54;;;;;;;;;;;;;;;19.58;74.25;95263.03;5153729;27;1967;-47
2022/06/30 04:46:20;;;;;;;;;;;;;;;19.65;73.06;95266.56;5156463;27;1973;-48
2022/06/30 04:48:46;;;;;;;;;;;;;;;19.80;72.08;95260.06;5156348;27;1822;-48
2022/06/30 04:51:12;;;;;;;;;;;;;;;19.97;72.04;95263.91;5156256;27;1849;-48
2022/06/30 04:53:40;;;;;;;;;;;;;;;19.95;71.83;95271.44;5156187;27;1087;-48
2022/06/30 04:56:06;;;;;;;;;;;;;;;20.04;72.79;95270.16;5156489;27;1032;-48
2022/06/30 04:58:32;;;;;;;;;;;;;;;20.24;71.85;95263.75;5156109;27;1092;-47
2022/06/30 05:00:58;;;;;;;;;;;;;;;20.26;71.97;95267.94;5156396;27;1052;-47
2022/06/30 05:03:24;;;;;;;;;;;;;;;20.34;72.39;95263.31;5155912;27;1901;-47
2022/06/30 05:05:50;;;;;;;;;;;;;;;20.43;72.44;95261.97;5155967;27;1011;-47
2022/06/30 05:08:16;;;;;;;;;;;;;;;20.34;72.33;95277.72;5155670;27;1359;-48
2022/06/30 05:10:42;;;;;;;;;;;;;;;20.31;71.33;95267.28;5156333;27;980;-48
2022/06/30 05:13:09;;;;;;;;;;;;;;;20.46;71.08;95261.53;5155744;27;1114;-47
2022/06/30 05:15:35;;;;;;;;;;;;;;;20.57;72.72;95265.44;5155961;27;1098;-48
2022/06/30 05:18:01;;;;;;;;;;;;;;;20.62;72.70;95268.34;5155728;27;972;-48
2022/06/30 05:20:27;;;;;;;;;;;;;;;20.79;72.55;95266.75;5155877;27;1047;-47
2022/06/30 05:22:53;;;;;;;;;;;;;;;20.85;71.31;95274.00;5155604;27;1051;-47
2022/06/30 05:28:04;;;;;;;;;;;;;;;21.09;70.08;95274.19;5155678;27;1038;-47
2022/06/30 05:30:30;;;;;;;;;;;;;;;20.81;68.88;95272.78;5155803;27;981;-48
2022/06/30 05:32:56;;;;;;;;;;;;;;;20.89;69.75;95278.97;5155511;27;956;-47
2022/06/30 05:35:22;;;;;;;;;;;;;;;21.23;70.61;95274.91;5155337;27;1040;-48
2022/06/30 05:37:48;;;;;;;;;;;;;;;21.42;69.07;95281.22;5155456;27;1015;-47
2022/06/30 05:40:14;;;;;;;;;;;;;;;21.58;69.04;95283.34;5155519;27;1079;-47
2022/06/30 05:42:40;;;;;;;;;;;;;;;21.55;68.93;95277.50;5147289;27;1208;-48
2022/06/30 05:45:06;;;;;;;;;;;;;;;21.69;69.11;95283.66;5134528;27;2004;-47
2022/06/30 05:47:32;;;;;;;;;;;;;;;21.54;68.45;95284.84;5134754;27;1020;-47
2022/06/30 05:49:58;;;;;;;;;;;;;;;21.69;69.40;95289.09;5133961;27;992;-48
2022/06/30 05:52:24;;;;;;;;;;;;;;;21.95;69.47;95290.66;5134668;27;958;-47
2022/06/30 05:54:50;;;;;;;;;;;;;;;22.04;68.98;95289.28;5134606;27;960;-48
2022/06/30 05:57:16;;;;;;;;;;;;;;;22.29;68.05;95291.06;5134600;27;1036;-47
2022/06/30 05:59:42;;;;;;;;;;;;;;;22.43;69.88;95289.81;5134862;27;960;-47
2022/06/30 06:02:08;;;;;;;;;;;;;;;22.43;67.50;95295.28;5134552;27;1051;-47
2022/06/30 06:04:35;;;;;;;;;;;;;;;22.58;67.46;95292.13;5133956;27;1909;-48
2022/06/30 06:07:03;;;;;;;;;;;;;;;22.70;68.94;95289.44;5134392;27;1073;-47
2022/06/30 06:09:30;;;;;;;;;;;;;;;22.70;67.34;95284.78;5134203;27;1242;-47
2022/06/30 06:11:56;;;;;;;;;;;;;;;22.77;68.31;95288.25;5134563;28;957;-47
2022/06/30 06:14:22;;;;;;;;;;;;;;;22.85;69.51;95280.81;5134190;28;1202;-47
2022/06/30 06:16:48;;;;;;;;;;;;;;;23.14;66.75;95284.53;5134283;28;1048;-47
2022/06/30 06:19:14;;;;;;;;;;;;;;;23.27;69.04;95286.19;5133961;28;981;-48
2022/06/30 06:21:40;;;;;;;;;;;;;;;23.37;66.62;95283.69;5134470;28;1044;-47
2022/06/30 06:24:06;;;;;;;;;;;;;;;23.46;66.46;95284.16;5133900;28;1917;-48
2022/06/30 06:26:32;;;;;;;;;;;;;;;23.49;66.51;95278.25;5134400;28;1041;-48
2022/06/30 06:29:07;;;;;;;;;;;;;;;23.64;67.56;95272.25;5134160;28;981;-48
2022/06/30 06:31:34;;;;;;;;;;;;;;;23.83;67.37;95275.69;5134256;28;1051;-48
2022/06/30 06:34:00;;;;;;;;;;;;;;;23.99;66.78;95277.69;5133929;28;1067;-48
2022/06/30 06:36:27;;;;;;;;;;;;;;;23.94;67.13;95275.69;5134376;28;1057;-48
2022/06/30 06:38:53;;;;;;;;;;;;;;;23.98;66.25;95273.31;5134079;28;1045;-47
2022/06/30 06:41:20;;;;;;;;;;;;;;;24.15;66.12;95274.19;5134165;28;956;-48
2022/06/30 06:43:48;;;;;;;;;;;;;;;24.24;66.34;95268.31;5151578;27;1910;-48
2022/06/30 06:46:14;;;;;;;;;;;;;;;24.42;65.84;95270.88;5154591;27;1084;-48
2022/06/30 06:48:40;;;;;;;;;;;;;;;24.47;66.32;95270.97;5154759;27;1103;-47
2022/06/30 06:51:06;;;;;;;;;;;;;;;24.44;64.01;95267.91;5154671;27;991;-48
2022/06/30 06:53:32;;;;;;;;;;;;;;;24.39;63.76;95259.59;5154663;27;1045;-48
2022/06/30 06:55:58;;;;;;;;;;;;;;;24.51;65.33;95261.22;5154605;27;1003;-48
2022/06/30 06:58:24;;;;;;;;;;;;;;;24.73;64.67;95261.31;5154674;27;1031;-48
2022/06/30 07:00:52;;;;;;;;;;;;;;;24.98;64.71;95262.00;5154429;27;1067;-48
2022/06/30 07:03:18;;;;;;;;;;;;;;;25.18;64.70;95256.84;5157343;27;2000;-48
2022/06/30 07:05:44;;;;;;;;;;;;;;;25.35;62.99;95251.38;5158358;27;976;-48
2022/06/30 07:08:10;;;;;;;;;;;;;;;25.31;61.53;95253.78;5158413;27;1078;-48
2022/06/30 07:10:36;;;;;;;;;;;;;;;25.41;62.04;95252.28;5158228;27;1036;-48
2022/06/30 07:13:02;;;;;;;;;;;;;;;25.39;62.46;95246.25;5158352;27;1115;-48
2022/06/30 07:15:28;;;;;;;;;;;;;;;25.46;60.36;95246.88;5158192;27;995;-48
2022/06/30 07:17:55;;;;;;;;;;;;;;;25.56;62.82;95246.22;5158240;27;1839;-48
2022/06/30 07:20:22;;;;;;;;;;;;;;;25.76;60.39;95251.94;5158157;27;1182;-48
2022/06/30 07:22:48;;;;;;;;;;;;;;;25.87;60.76;95250.16;5158384;27;995;-48
2022/06/30 07:25:14;;;;;;;;;;;;;;;25.89;60.19;95248.00;5157968;27;1987;-48
2022/06/30 07:27:40;;;;;;;;;;;;;;;26.00;60.15;95251.72;5158140;27;1091;-48
2022/06/30 07:30:06;;;;;;;;;;;;;;;26.03;60.50;95251.22;5157829;27;1031;-48
2022/06/30 07:32:32;;;;;;;;;;;;;;;26.04;58.09;95250.94;5158004;27;1063;-48
2022/06/30 07:34:58;;;;;;;;;;;;;;;26.18;58.43;95245.91;5157604;27;1060;-48
2022/06/30 07:37:24;;;;;;;;;;;;;;;26.19;57.83;95249.47;5157982;27;1031;-48
2022/06/30 07:39:50;;;;;;;;;;;;;;;26.28;58.29;95248.75;5157854;27;1313;-48
2022/06/30 07:42:16;;;;;;;;;;;;;;;26.35;57.28;95239.50;5153084;27;1207;-48
2022/06/30 07:44:43;;;;;;;;;;;;;;;26.25;57.67;95238.28;5136755;27;1901;-48
2022/06/30 07:47:10;;;;;;;;;;;;;;;26.24;54.71;95236.66;5137146;27;1028;-48
2022/06/30 07:49:36;;;;;;;;;;;;;;;26.33;54.93;95237.00;5137000;27;1943;-48
2022/06/30 07:52:02;;;;;;;;;;;;;;;26.29;55.01;95239.47;5136637;27;933;-48
2022/06/30 07:54:28;;;;;;;;;;;;;;;26.37;54.71;95231.84;5136985;27;973;-48
2022/06/30 07:56:54;;;;;;;;;;;;;;;26.61;57.51;95224.97;5118500;27;1017;-48
2022/06/30 07:59:20;;;;;;;;;;;;;;;26.88;55.67;95221.34;5136738;27;1040;-48
2022/06/30 08:01:46;;;;;;;;;;;;;;;27.07;54.13;95217.13;5136790;27;972;-48
2022/06/30 08:04:12;;;;;;;;;;;;;;;27.19;53.46;95218.84;5136258;27;1976;-48
2022/06/30 08:06:38;;;;;;;;;;;;;;;27.26;51.45;95212.06;5136437;27;1851;-48
2022/06/30 08:09:04;;;;;;;;;;;;;;;27.35;52.61;95219.81;5136334;27;1250;-48
2022/06/30 08:11:30;;;;;;;;;;;;;;;27.38;52.81;95222.84;5136463;27;1032;-48
2022/06/30 08:13:56;;;;;;;;;;;;;;;27.39;52.49;95221.75;5136017;27;1152;-48
2022/06/30 08:16:22;;;;;;;;;;;;;;;27.40;50.42;95215.16;5136164;27;1063;-48
2022/06/30 08:18:48;;;;;;;;;;;;;;;27.55;52.07;95217.19;5136616;27;950;-48
2022/06/30 08:21:14;;;;;;;;;;;;;;;27.58;50.46;95219.38;5136055;27;1032;-48
2022/06/30 08:23:40;;;;;;;;;;;;;;;27.67;52.55;95216.97;5136303;27;1898;-48
2022/06/30 08:26:06;;;;;;;;;;;;;;;27.60;51.48;95214.47;5136021;27;952;-48
2022/06/30 08:28:33;;;;;;;;;;;;;;;27.79;53.22;95213.97;5136233;27;957;-48
2022/06/30 08:31:02;;;;;;;;;;;;;;;27.92;51.43;95213.50;5135940;27;995;-48
2022/06/30 08:33:29;;;;;;;;;;;;;;;27.96;51.78;95219.31;5136274;27;1040;-48
2022/06/30 08:35:55;;;;;;;;;;;;;;;27.99;51.94;95205.03;5135646;27;1130;-48
2022/06/30 08:38:21;;;;;;;;;;;;;;;28.03;53.03;95217.94;5136073;27;1027;-49
2022/06/30 08:43:33;;;;;;;;;;;;;;;28.00;53.15;95210.28;5151308;27;1984;-49
2022/06/30 08:45:59;;;;;;;;;;;;;;;28.13;52.19;95216.34;5156598;27;1055;-49
2022/06/30 08:48:25;;;;;;;;;;;;;;;28.15;53.25;95220.47;5156689;27;1035;-48
2022/06/30 08:50:57;;;;;;;;;;;;;;;28.13;51.81;95214.41;5156604;27;952;-48
2022/06/30 08:53:24;;;;;;;;;;;;;;;28.16;51.93;95222.13;5156338;27;1012;-48
2022/06/30 08:55:50;;;;;;;;;;;;;;;28.27;52.18;95211.13;5138015;27;1047;-49
2022/06/30 08:58:18;;;;;;;;;;;;;;;28.31;52.08;95218.59;5156043;27;1176;-49
2022/06/30 09:00:45;;;;;;;;;;;;;;;28.36;51.54;95210.34;5156462;27;999;-49
2022/06/30 09:03:11;;;;;;;;;;;;;;;28.43;52.26;95205.41;5156067;27;1909;-48
2022/06/30 09:05:38;;;;;;;;;;;;;;;28.49;52.17;95208.16;5156008;27;1024;-48
2022/06/30 09:08:04;;;;;;;;;;;;;;;28.54;52.96;95209.03;5155987;27;979;-48
2022/06/30 09:10:30;;;;;;;;;;;;;;;28.36;51.56;95210.34;5155825;27;1245;-49
2022/06/30 09:12:57;;;;;;;;;;;;;;;28.37;51.17;95198.25;5155899;27;1210;-49
2022/06/30 09:15:23;;;;;;;;;;;;;;;28.50;52.62;95205.16;5156120;27;1034;-48
2022/06/30 09:17:49;;;;;;;;;;;;;;;28.46;49.00;95204.06;5155948;27;995;-48
2022/06/30 09:20:15;;;;;;;;;;;;;;;28.53;52.06;95193.66;5155840;27;1071;-49
2022/06/30 09:22:41;;;;;;;;;;;;;;;28.55;51.69;95191.44;5155811;27;1083;-49
2022/06/30 09:25:08;;;;;;;;;;;;;;;28.69;50.25;95190.91;5154892;27;1917;-49
2022/06/30 09:27:39;;;;;;;;;;;;;;;28.77;52.04;95195.84;5155846;27;1020;-48
2022/06/30 09:30:09;;;;;;;;;;;;;;;28.87;49.17;95197.75;5155886;27;1021;-49
2022/06/30 09:33:00;;;;;;;;;;;;;;;28.92;49.79;95187.59;5155687;27;929;-49
2022/06/30 09:35:27;;;;;;;;;;;;;;;28.95;50.34;95180.69;5143888;27;1805;-49
2022/06/30 09:38:04;;;;;;;;;;;;;;;29.07;50.84;95180.44;5155415;27;1035;-49
2022/06/30 09:40:37;;;;;;;;;;;;;;;29.15;50.99;95177.13;5155536;27;1048;-48
2022/06/30 09:43:04;;;;;;;;;;;;;;;29.09;51.44;95178.22;5143998;27;1176;-49
2022/06/30 09:45:33;;;;;;;;;;;;;;;29.07;51.35;95174.91;5134638;27;1914;-48
2022/06/30 09:47:59;;;;;;;;;;;;;;;29.10;51.03;95171.59;5134579;27;1014;-50
2022/06/30 09:50:25;;;;;;;;;;;;;;;29.17;50.54;95170.22;5134619;27;1099;-49
2022/06/30 09:53:03;;;;;;;;;;;;;;;29.29;51.32;95161.69;5134424;27;1056;-49
2022/06/30 09:55:35;;;;;;;;;;;;;;;29.37;50.69;95161.13;5134799;27;1071;-48
2022/06/30 09:58:01;;;;;;;;;;;;;;;29.39;48.88;95161.66;5134312;27;1032;-48
2022/06/30 10:00:27;;;;;;;;;;;;;;;29.42;50.87;95159.44;5134584;27;996;-48
2022/06/30 10:02:54;;;;;;;;;;;;;;;29.49;49.39;95146.22;5134151;27;1289;-49
2022/06/30 10:05:20;;;;;;;;;;;;;;;29.61;50.47;95148.63;5134324;27;1987;-49
2022/06/30 10:07:46;;;;;;;;;;;;;;;29.70;48.27;95145.00;5134451;27;1064;-49
2022/06/30 10:10:13;;;;;;;;;;;;;;;29.69;49.20;95143.38;5134275;27;1218;-49
2022/06/30 10:12:45;;;;;;;;;;;;;;;29.73;48.96;95146.44;5134279;27;981;-49
2022/06/30 10:15:12;;;;;;;;;;;;;;;29.82;45.68;95143.88;5134281;27;964;-48
2022/06/30 10:17:42;;;;;;;;;;;;;;;29.83;48.45;95148.31;5134440;27;1023;-48
2022/06/30 10:20:09;;;;;;;;;;;;;;;29.87;42.02;95143.88;5134298;28;1114;-48
2022/06/30 10:22:35;;;;;;;;;;;;;;;29.74;44.59;95142.56;5134400;28;1036;-48
2022/06/30 10:25:01;;;;;;;;;;;;;;;29.69;44.85;95137.03;5134087;28;2008;-48
2022/06/30 10:27:27;;;;;;;;;;;;;;;29.78;40.32;95138.13;5134740;28;1064;-49
2022/06/30 10:29:53;;;;;;;;;;;;;;;29.91;41.77;95133.94;5134020;28;1003;-48
2022/06/30 10:32:26;;;;;;;;;;;;;;;30.03;41.54;95133.56;5134084;28;1012;-49
2022/06/30 10:34:59;;;;;;;;;;;;;;;30.00;41.00;95125.91;5133799;28;1028;-49
2022/06/30 10:37:31;;;;;;;;;;;;;;;29.98;41.23;95117.91;5137585;27;961;-49
2022/06/30 10:40:03;;;;;;;;;;;;;;;29.95;42.70;95112.94;5138345;27;1060;-49
2022/06/30 10:42:47;;;;;;;;;;;;;;;30.03;42.50;95114.28;5144656;27;1216;-49
2022/06/30 10:45:34;;;;;;;;;;;;;;;30.15;41.57;95115.59;5158893;27;1917;-49
2022/06/30 10:48:07;;;;;;;;;;;;;;;30.18;41.01;95116.94;5158745;27;1723;-48
2022/06/30 10:50:33;;;;;;;;;;;;;;;30.15;38.61;95103.75;5158924;27;1026;-49
2022/06/30 10:53:00;;;;;;;;;;;;;;;30.15;40.72;95101.81;5158686;27;1004;-49
2022/06/30 10:55:26;;;;;;;;;;;;;;;30.15;39.22;95098.22;5158692;27;1028;-49
2022/06/30 10:58:06;;;;;;;;;;;;;;;30.13;38.94;95100.44;5158857;27;1050;-49
2022/06/30 11:00:44;;;;;;;;;;;;;;;30.21;36.47;95094.31;5158759;27;1051;-49
2022/06/30 11:03:37;;;;;;;;;;;;;;;30.30;37.83;95100.88;5158464;27;1099;-49
2022/06/30 11:06:09;;;;;;;;;;;;;;;30.36;35.84;95097.00;5113237;27;1293;-49
2022/06/30 11:11:22;;;;;;;;;;;;;;;30.19;35.30;95093.78;5158393;27;1072;-49
2022/06/30 11:13:49;;;;;;;;;;;;;;;30.15;32.70;95090.78;5158188;27;1007;-49
2022/06/30 11:16:16;;;;;;;;;;;;;;;30.21;34.82;95088.00;5158597;27;971;-49
2022/06/30 11:18:42;;;;;;;;;;;;;;;30.30;35.69;95081.56;5158573;27;953;-49
2022/06/30 11:21:08;;;;;;;;;;;;;;;30.30;34.58;95081.56;5158358;27;1006;-49
2022/06/30 11:23:48;;;;;;;;;;;;;;;30.26;30.61;95086.00;5158161;27;1901;-49
2022/06/30 11:29:00;;;;;;;;;;;;;;;30.39;31.69;95076.28;5158025;27;1040;-49
2022/06/30 11:31:27;;;;;;;;;;;;;;;30.36;30.85;95074.09;5139950;27;1051;-49
2022/06/30 11:33:55;;;;;;;;;;;;;;;30.42;31.45;95072.13;5158035;27;972;-49
2022/06/30 11:36:21;;;;;;;;;;;;;;;30.44;32.87;95079.00;5157835;27;1094;-49
2022/06/30 11:39:07;;;;;;;;;;;;;;;30.47;34.77;95074.84;5157790;27;1098;-49
2022/06/30 11:44:18;;;;;;;;;;;;;;;30.62;31.42;95065.59;5136953;27;1909;-49
2022/06/30 11:46:57;;;;;;;;;;;;;;;30.58;33.34;95062.59;5137119;27;970;-49
2022/06/30 11:49:24;;;;;;;;;;;;;;;30.54;33.00;95059.63;5135833;27;1023;-49
2022/06/30 11:51:51;;;;;;;;;;;;;;;30.59;33.86;95061.50;5136991;27;1972;-49
2022/06/30 11:54:20;;;;;;;;;;;;;;;30.57;32.41;95063.72;5136665;27;1088;-49
2022/06/30 11:56:51;;;;;;;;;;;;;;;30.58;31.66;95051.56;5137047;27;995;-49
2022/06/30 11:59:17;;;;;;;;;;;;;;;30.68;34.34;95043.19;5136718;27;1011;-49
2022/06/30 12:01:58;;;;;;;;;;;;;;;30.76;34.84;95052.78;5136802;27;969;-49
2022/06/30 12:04:24;;;;;;;;;;;;;;;30.80;35.66;95044.75;5136230;27;1914;-49
2022/06/30 12:06:50;;;;;;;;;;;;;;;30.74;35.86;95046.72;5136851;27;1129;-49
2022/06/30 12:09:16;;;;;;;;;;;;;;;30.73;34.67;95040.41;5136200;27;1198;-49
2022/06/30 12:11:44;;;;;;;;;;;;;;;30.74;36.13;95043.97;5136759;27;1255;-49
2022/06/30 12:14:10;;;;;;;;;;;;;;;30.76;35.91;95033.47;5136486;27;1028;-49
2022/06/30 12:16:36;;;;;;;;;;;;;;;30.79;36.22;95037.56;5136219;27;1044;-49
2022/06/30 12:19:02;;;;;;;;;;;;;;;30.72;37.52;95027.69;5136598;27;956;-49
2022/06/30 12:21:29;;;;;;;;;;;;;;;30.78;36.92;95024.91;5136372;27;1000;-49
2022/06/30 12:23:55;;;;;;;;;;;;;;;30.83;38.02;95027.56;5136209;27;1980;-49
2022/06/30 12:26:22;;;;;;;;;;;;;;;30.86;38.69;95025.06;5136111;27;1020;-49
2022/06/30 12:28:51;;;;;;;;;;;;;;;30.77;35.64;95018.53;5136258;27;1048;-49
2022/06/30 12:31:30;;;;;;;;;;;;;;;30.73;38.54;95018.31;5135825;27;1088;-49
2022/06/30 12:33:56;;;;;;;;;;;;;;;30.73;37.01;95015.56;5136340;27;973;-49
2022/06/30 12:36:23;;;;;;;;;;;;;;;30.81;37.89;95011.34;5135775;27;1003;-49
2022/06/30 12:38:49;;;;;;;;;;;;;;;30.85;36.90;95012.38;5136191;27;941;-49
2022/06/30 12:41:15;;;;;;;;;;;;;;;30.85;36.75;95012.38;5135830;27;991;-49
2022/06/30 12:43:42;;;;;;;;;;;;;;;30.82;37.19;95007.44;5152560;27;1988;-49
2022/06/30 12:46:09;;;;;;;;;;;;;;;30.81;35.82;95013.25;5156676;27;1071;-49
2022/06/30 12:48:41;;;;;;;;;;;;;;;30.85;35.37;95001.34;5156740;27;968;-49
2022/06/30 12:51:09;;;;;;;;;;;;;;;30.86;35.23;95002.97;5156471;27;1052;-49
2022/06/30 12:53:35;;;;;;;;;;;;;;;30.88;33.84;94997.16;5156637;27;1125;-49
2022/06/30 12:56:02;;;;;;;;;;;;;;;30.86;32.96;94997.47;5156242;27;1036;-49
2022/06/30 12:58:47;;;;;;;;;;;;;;;30.91;34.95;94997.44;5156260;27;1117;-49
2022/06/30 13:01:14;;;;;;;;;;;;;;;31.07;36.58;94994.50;5156040;27;1087;-49
2022/06/30 13:03:59;;;;;;;;;;;;;;;31.16;35.52;94995.50;5156338;27;1905;-49
2022/06/30 13:06:26;;;;;;;;;;;;;;;31.12;36.60;94983.41;5156057;27;1838;-49
2022/06/30 13:08:52;;;;;;;;;;;;;;;31.16;36.07;94989.16;5156001;27;1102;-49
2022/06/30 13:11:21;;;;;;;;;;;;;;;31.18;37.16;94982.22;5155862;27;1082;-49
2022/06/30 13:13:48;;;;;;;;;;;;;;;31.17;34.80;94983.34;5156287;27;1031;-49
2022/06/30 13:16:15;;;;;;;;;;;;;;;31.16;36.01;94983.63;5155952;27;973;-49
2022/06/30 13:18:41;;;;;;;;;;;;;;;31.17;36.04;94983.34;5156006;27;1261;-49
2022/06/30 13:21:07;;;;;;;;;;;;;;;31.20;35.75;94984.69;5155700;27;1056;-49